Time;durP1;ratioP1;P1;durP2;ratioP2;P2;SDS_P1;SDS_P2;PMS_P1;PMS_P2;Temp;Humidity;BMP_temperature;BMP_pressure;BME280_temperature;BME280_humidity;BME280_pressure;Samples;Min_cycle;Max_cycle;Signal;HPM_P1;HPM_P2
2023/07/07 00:00:41;;;;;;;1.70;1.60;;;24.40;47.10;;;;;;4975985;28;20458;-50
2023/07/07 00:03:10;;;;;;;1.70;1.37;;;24.40;47.00;;;;;;4996569;28;20477;-49
2023/07/07 00:05:41;;;;;;;2.40;1.70;;;24.40;47.00;;;;;;4997223;28;21044;-52
2023/07/07 00:08:11;;;;;;;1.70;1.50;;;24.40;47.00;;;;;;4983653;28;20457;-52
2023/07/07 00:10:42;;;;;;;2.03;1.83;;;24.40;48.20;;;;;;4997892;28;20517;-50
2023/07/07 00:13:13;;;;;;;1.73;1.63;;;24.40;47.00;;;;;;4984141;28;20458;-50
2023/07/07 00:15:44;;;;;;;3.50;1.90;;;24.30;47.00;;;;;;4973459;28;20470;-50
2023/07/07 00:18:15;;;;;;;2.13;1.57;;;24.40;47.10;;;;;;4995157;28;20450;-52
2023/07/07 00:20:44;;;;;;;1.90;1.43;;;24.30;47.00;;;;;;4976190;28;20463;-50
2023/07/07 00:23:13;;;;;;;1.70;1.53;;;24.30;47.00;;;;;;4970466;28;20537;-49
2023/07/07 00:25:41;;;;;;;1.60;1.23;;;24.30;47.10;;;;;;4979240;28;20575;-51
2023/07/07 00:28:10;;;;;;;1.73;1.53;;;24.30;47.00;;;;;;4968550;28;20468;-50
2023/07/07 00:30:40;;;;;;;3.50;2.17;;;24.30;47.00;;;;;;4971776;28;20495;-50
2023/07/07 00:33:10;;;;;;;2.13;1.53;;;24.30;47.00;;;;;;4984707;28;20444;-51
2023/07/07 00:35:46;;;;;;;1.70;1.60;;;24.30;47.10;;;;;;4963647;28;20518;-50
2023/07/07 00:38:14;;;;;;;1.73;1.60;;;24.30;47.00;;;;;;4977036;28;20462;-50
2023/07/07 00:40:43;;;;;;;1.77;1.40;;;24.30;47.10;;;;;;4992627;28;20740;-51
2023/07/07 00:43:13;;;;;;;1.90;1.70;;;24.30;47.00;;;;;;5000931;28;20441;-50
2023/07/07 00:45:43;;;;;;;2.30;1.50;;;24.30;47.10;;;;;;4981171;28;20492;-53
2023/07/07 00:48:14;;;;;;;2.00;1.60;;;24.30;47.10;;;;;;4984335;28;20489;-52
2023/07/07 00:50:47;;;;;;;2.10;1.60;;;24.30;47.20;;;;;;4992458;28;20473;-49
2023/07/07 00:53:16;;;;;;;1.80;1.70;;;24.30;47.10;;;;;;4985087;28;20448;-52
2023/07/07 00:55:50;;;;;;;1.83;1.57;;;24.30;47.10;;;;;;4984002;28;20489;-48
2023/07/07 00:58:22;;;;;;;2.07;1.70;;;24.30;47.00;;;;;;4959223;28;20489;-50
2023/07/07 01:00:57;;;;;;;2.07;1.63;;;24.30;47.00;;;;;;4999004;28;20470;-49
2023/07/07 01:03:37;;;;;;;2.80;1.60;;;24.30;47.10;;;;;;4977532;28;20968;-50
2023/07/07 01:06:09;;;;;;;2.23;1.30;;;24.30;47.00;;;;;;4983912;28;20478;-51
2023/07/07 01:08:40;;;;;;;1.87;1.43;;;24.30;47.10;;;;;;4972836;28;20843;-50
2023/07/07 01:11:09;;;;;;;2.27;1.67;;;24.30;47.00;;;;;;4963574;28;20489;-51
2023/07/07 01:13:38;;;;;;;2.20;1.60;;;24.30;47.10;;;;;;4984300;28;20453;-50
2023/07/07 01:16:16;;;;;;;1.73;1.33;;;24.20;47.00;;;;;;4979512;28;20486;-50
2023/07/07 01:18:52;;;;;;;2.27;1.70;;;24.30;47.00;;;;;;4997156;28;20778;-50
2023/07/07 01:21:29;;;;;;;2.07;1.87;;;24.30;47.10;;;;;;5000181;28;20492;-50
2023/07/07 01:24:29;;;;;;;2.20;1.63;;;24.30;47.00;;;;;;4957471;28;20456;-50
2023/07/07 01:27:44;;;;;;;1.83;1.70;;;24.30;47.20;;;;;;4979577;28;20581;-51
2023/07/07 01:30:44;;;;;;;1.70;1.30;;;24.20;47.00;;;;;;4985088;28;20529;-50
2023/07/07 01:33:17;;;;;;;2.10;1.60;;;24.20;47.00;;;;;;4961439;28;20938;-50
2023/07/07 01:35:45;;;;;;;1.77;1.43;;;24.20;47.00;;;;;;5001284;28;21003;-49
2023/07/07 01:38:33;;;;;;;1.70;1.60;;;24.20;47.00;;;;;;4971449;28;20523;-51
2023/07/07 01:41:16;;;;;;;1.63;1.53;;;24.20;47.00;;;;;;4992367;28;20481;-50
2023/07/07 01:44:01;;;;;;;1.70;1.37;;;24.20;46.90;;;;;;4989226;28;20445;-50
2023/07/07 01:46:34;;;;;;;2.00;1.67;;;24.20;46.90;;;;;;4966902;28;20563;-49
2023/07/07 01:49:12;;;;;;;1.60;1.40;;;24.20;47.00;;;;;;4973075;28;20441;-50
2023/07/07 01:51:46;;;;;;;2.13;1.80;;;24.20;47.00;;;;;;5023862;28;20901;-49
2023/07/07 01:54:17;;;;;;;1.80;1.40;;;24.20;47.00;;;;;;4993837;28;20807;-49
2023/07/07 01:56:48;;;;;;;2.03;1.77;;;24.20;47.00;;;;;;5016944;28;20575;-49
2023/07/07 01:59:18;;;;;;;2.97;1.87;;;24.20;47.10;;;;;;5019507;28;20525;-51
2023/07/07 02:01:48;;;;;;;1.60;1.50;;;24.20;47.20;;;;;;5017690;28;21085;-48
2023/07/07 02:04:17;;;;;;;1.60;1.50;;;24.20;47.00;;;;;;5006587;28;20805;-51
2023/07/07 02:06:45;;;;;;;1.67;1.17;;;24.20;47.00;;;;;;4992595;28;20492;-48
2023/07/07 02:09:14;;;;;;;2.27;1.80;;;24.20;47.00;;;;;;4997967;28;20475;-48
2023/07/07 02:11:42;;;;;;;2.80;1.57;;;24.20;47.00;;;;;;5019780;28;20507;-49
2023/07/07 02:14:11;;;;;;;2.50;1.80;;;24.10;47.00;;;;;;5023239;28;20532;-49
2023/07/07 02:16:40;;;;;;;1.90;1.60;;;24.20;47.00;;;;;;4997102;28;20479;-49
2023/07/07 02:19:10;;;;;;;2.77;1.77;;;24.10;47.00;;;;;;5025279;28;20433;-48
2023/07/07 02:21:39;;;;;;;1.40;1.30;;;24.10;47.00;;;;;;5008081;28;20699;-49
2023/07/07 02:24:08;;;;;;;2.17;1.80;;;24.10;47.00;;;;;;4992603;28;20542;-49
2023/07/07 02:26:36;;;;;;;1.90;1.70;;;24.10;47.20;;;;;;4992736;28;20496;-49
2023/07/07 02:29:05;;;;;;;2.33;1.77;;;24.10;47.00;;;;;;5008802;28;20437;-48
2023/07/07 02:31:33;;;;;;;1.63;1.53;;;24.10;47.00;;;;;;5014652;28;21022;-50
2023/07/07 02:34:02;;;;;;;2.73;1.70;;;24.10;47.00;;;;;;5019585;28;20435;-49
2023/07/07 02:36:32;;;;;;;1.73;1.40;;;24.10;47.00;;;;;;5001821;28;20519;-49
2023/07/07 02:39:01;;;;;;;2.40;1.53;;;24.10;47.00;;;;;;5006545;28;20460;-49
2023/07/07 02:41:30;;;;;;;1.97;1.77;;;24.10;47.00;;;;;;5011655;28;20475;-50
2023/07/07 02:43:59;;;;;;;2.80;2.10;;;24.10;47.00;;;;;;5010273;28;20432;-51
2023/07/07 02:46:28;;;;;;;1.60;1.43;;;24.10;46.90;;;;;;5002691;28;20991;-49
2023/07/07 02:48:56;;;;;;;1.40;1.20;;;24.10;47.00;;;;;;5020729;28;20456;-48
2023/07/07 02:51:25;;;;;;;1.40;1.27;;;24.10;47.00;;;;;;5013874;28;21078;-49
2023/07/07 02:53:55;;;;;;;1.87;1.13;;;24.10;46.90;;;;;;5005284;28;20480;-50
2023/07/07 02:56:24;;;;;;;2.43;1.70;;;24.10;47.00;;;;;;5010194;28;20495;-49
2023/07/07 02:58:55;;;;;;;2.03;1.67;;;24.10;47.00;;;;;;5002079;28;20532;-49
2023/07/07 03:01:24;;;;;;;1.73;1.40;;;24.10;47.00;;;;;;5005925;28;20463;-51
2023/07/07 03:03:56;;;;;;;1.63;1.53;;;24.10;47.00;;;;;;5001541;28;20568;-49
2023/07/07 03:06:26;;;;;;;2.37;1.93;;;24.10;47.00;;;;;;4990076;28;20512;-48
2023/07/07 03:08:57;;;;;;;2.27;1.50;;;24.10;47.10;;;;;;4989517;28;20535;-49
2023/07/07 03:11:26;;;;;;;1.77;1.20;;;24.00;46.90;;;;;;5023457;28;20474;-49
2023/07/07 03:13:56;;;;;;;1.50;1.30;;;24.10;47.10;;;;;;5001966;28;20852;-49
2023/07/07 03:16:31;;;;;;;2.87;1.70;;;24.00;46.90;;;;;;5003906;28;20475;-50
2023/07/07 03:19:09;;;;;;;2.37;2.10;;;24.00;47.00;;;;;;4988203;28;20957;-49
2023/07/07 03:21:46;;;;;;;1.53;1.00;;;24.00;47.00;;;;;;5015906;28;20550;-50
2023/07/07 03:24:29;;;;;;;2.10;1.87;;;24.00;46.90;;;;;;5005885;28;21034;-51
2023/07/07 03:27:01;;;;;;;2.10;1.60;;;24.00;47.00;;;;;;5004503;28;20451;-49
2023/07/07 03:29:35;;;;;;;1.80;1.37;;;24.00;47.10;;;;;;5024481;28;20449;-50
2023/07/07 03:32:04;;;;;;;1.40;1.17;;;24.00;47.00;;;;;;5015522;28;20458;-48
2023/07/07 03:34:36;;;;;;;1.20;1.10;;;24.00;47.00;;;;;;5006736;28;20537;-51
2023/07/07 03:37:09;;;;;;;2.03;1.57;;;24.00;47.00;;;;;;5016846;28;20977;-49
2023/07/07 03:39:40;;;;;;;1.60;1.47;;;23.90;46.90;;;;;;5015096;28;20497;-51
2023/07/07 03:42:09;;;;;;;1.90;1.60;;;23.90;46.90;;;;;;5015982;28;20507;-51
2023/07/07 03:44:38;;;;;;;1.97;1.33;;;23.90;46.90;;;;;;5022286;28;20451;-50
2023/07/07 03:47:07;;;;;;;1.93;1.67;;;23.90;46.90;;;;;;5017439;28;20963;-49
2023/07/07 03:49:37;;;;;;;2.03;1.73;;;23.90;47.00;;;;;;4989930;28;20825;-50
2023/07/07 03:52:07;;;;;;;1.90;1.70;;;23.90;47.00;;;;;;5003332;28;20438;-50
2023/07/07 03:54:37;;;;;;;2.20;1.43;;;23.90;46.90;;;;;;5005459;28;20467;-51
2023/07/07 03:57:07;;;;;;;2.17;1.80;;;23.90;47.00;;;;;;5000735;28;20545;-49
2023/07/07 03:59:36;;;;;;;1.90;1.73;;;23.90;47.00;;;;;;5003339;28;20795;-48
2023/07/07 04:02:05;;;;;;;2.23;1.60;;;23.90;47.00;;;;;;5018863;28;20481;-49
2023/07/07 04:04:33;;;;;;;2.00;1.30;;;23.90;47.00;;;;;;4994497;28;20445;-48
2023/07/07 04:07:03;;;;;;;2.30;1.30;;;23.90;47.00;;;;;;5006712;28;20494;-51
2023/07/07 04:09:31;;;;;;;3.77;1.43;;;23.90;47.00;;;;;;4995527;28;20487;-49
2023/07/07 04:12:00;;;;;;;1.67;1.47;;;23.90;48.30;;;;;;5005644;28;20869;-50
2023/07/07 04:14:30;;;;;;;1.40;1.10;;;23.90;47.00;;;;;;4995301;28;20473;-49
2023/07/07 04:17:01;;;;;;;1.73;1.37;;;23.90;47.00;;;;;;4998080;28;20563;-49
2023/07/07 04:19:31;;;;;;;1.50;1.20;;;23.90;47.00;;;;;;5015978;28;20430;-49
2023/07/07 04:21:59;;;;;;;2.03;1.83;;;23.90;47.00;;;;;;5009041;28;20918;-50
2023/07/07 04:24:28;;;;;;;1.63;1.53;;;23.80;47.00;;;;;;4986914;28;20483;-50
2023/07/07 04:26:57;;;;;;;2.13;1.20;;;23.80;47.20;;;;;;5001677;28;20468;-49
2023/07/07 04:29:25;;;;;;;2.03;1.40;;;23.80;47.00;;;;;;5019242;28;20820;-50
2023/07/07 04:31:55;;;;;;;3.60;1.30;;;23.80;46.90;;;;;;4988349;28;20907;-49
2023/07/07 04:34:24;;;;;;;1.50;1.30;;;23.90;47.00;;;;;;5003443;28;20896;-48
2023/07/07 04:36:52;;;;;;;2.10;1.67;;;23.80;47.00;;;;;;5001107;28;20602;-49
2023/07/07 04:39:21;;;;;;;2.30;1.40;;;23.80;47.00;;;;;;5012770;28;20466;-49
2023/07/07 04:41:51;;;;;;;2.70;1.30;;;23.80;47.00;;;;;;4995756;28;20565;-50
2023/07/07 04:44:19;;;;;;;2.00;1.30;;;23.80;47.10;;;;;;5021761;28;20443;-51
2023/07/07 04:46:48;;;;;;;1.80;1.70;;;23.80;47.10;;;;;;5003386;28;20534;-50
2023/07/07 04:49:18;;;;;;;2.60;1.73;;;23.80;47.10;;;;;;5005574;28;20528;-49
2023/07/07 04:51:47;;;;;;;1.70;1.60;;;23.80;47.10;;;;;;5015694;28;20886;-48
2023/07/07 04:54:15;;;;;;;1.53;1.20;;;23.80;47.20;;;;;;4996441;28;20477;-48
2023/07/07 04:56:45;;;;;;;1.93;1.60;;;23.80;47.10;;;;;;5010953;28;20472;-51
2023/07/07 04:59:13;;;;;;;1.60;1.20;;;23.80;47.20;;;;;;4989750;28;20811;-49
2023/07/07 05:01:42;;;;;;;1.87;1.20;;;23.80;47.20;;;;;;4995341;28;20863;-49
2023/07/07 05:04:11;;;;;;;2.03;1.83;;;23.80;47.70;;;;;;5017281;28;20423;-48
2023/07/07 05:06:41;;;;;;;1.80;1.60;;;23.80;47.30;;;;;;4995162;28;20471;-48
2023/07/07 05:09:12;;;;;;;1.63;1.53;;;23.80;47.20;;;;;;4991136;28;20548;-50
2023/07/07 05:11:41;;;;;;;1.57;1.47;;;23.80;47.20;;;;;;5016336;28;20486;-49
2023/07/07 05:14:10;;;;;;;3.03;1.63;;;23.80;47.30;;;;;;4991448;28;20463;-49
2023/07/07 05:16:39;;;;;;;1.93;1.47;;;23.80;47.30;;;;;;4992305;28;20571;-50
2023/07/07 05:19:09;;;;;;;3.20;1.70;;;23.80;47.30;;;;;;4989204;28;20459;-49
2023/07/07 05:21:37;;;;;;;1.90;1.43;;;23.80;47.30;;;;;;4990868;28;20503;-48
2023/07/07 05:24:07;;;;;;;2.90;1.93;;;23.80;47.20;;;;;;4998058;28;20449;-49
2023/07/07 05:26:36;;;;;;;1.63;1.47;;;23.70;47.20;;;;;;4997298;28;20463;-49
2023/07/07 05:29:06;;;;;;;2.60;2.00;;;23.70;47.20;;;;;;4994816;28;20447;-50
2023/07/07 05:31:35;;;;;;;1.87;1.77;;;23.80;47.30;;;;;;5000393;28;20479;-49
2023/07/07 05:34:04;;;;;;;2.03;1.70;;;23.70;47.20;;;;;;5021905;28;20562;-48
2023/07/07 05:36:32;;;;;;;2.47;2.27;;;23.70;47.20;;;;;;4995925;28;20466;-47
2023/07/07 05:39:01;;;;;;;2.37;1.77;;;23.80;47.20;;;;;;4991685;28;20586;-49
2023/07/07 05:41:31;;;;;;;2.20;1.97;;;23.70;47.10;;;;;;5013772;28;20887;-48
2023/07/07 05:44:00;;;;;;;2.60;1.80;;;23.70;47.20;;;;;;5017126;28;20859;-50
2023/07/07 05:46:28;;;;;;;2.17;1.40;;;23.70;47.20;;;;;;5005707;28;20860;-50
2023/07/07 05:48:57;;;;;;;1.63;1.40;;;23.70;47.20;;;;;;4986559;28;20450;-50
2023/07/07 05:51:25;;;;;;;2.37;1.60;;;23.70;47.20;;;;;;5009182;28;20471;-50
2023/07/07 05:53:54;;;;;;;2.40;1.60;;;23.70;47.30;;;;;;4976261;28;20467;-49
2023/07/07 05:56:25;;;;;;;2.30;1.77;;;23.70;47.30;;;;;;4996106;28;20481;-48
2023/07/07 05:58:56;;;;;;;2.07;1.13;;;23.70;47.30;;;;;;5003164;28;20491;-49
2023/07/07 06:01:25;;;;;;;2.47;1.50;;;23.70;47.40;;;;;;5002947;28;20531;-50
2023/07/07 06:03:54;;;;;;;1.60;1.40;;;23.70;47.40;;;;;;4996131;28;20865;-48
2023/07/07 06:06:22;;;;;;;1.77;1.30;;;23.80;47.50;;;;;;4994640;28;20566;-47
2023/07/07 06:08:51;;;;;;;1.90;1.50;;;23.70;47.40;;;;;;4997386;28;20546;-50
2023/07/07 06:11:20;;;;;;;1.70;1.43;;;23.80;47.50;;;;;;5022383;28;20482;-48
2023/07/07 06:13:48;;;;;;;1.80;1.27;;;23.80;47.50;;;;;;5011041;28;20469;-50
2023/07/07 06:16:19;;;;;;;1.50;1.40;;;23.80;47.50;;;;;;5010406;28;20821;-49
2023/07/07 06:18:48;;;;;;;2.63;1.60;;;23.70;47.50;;;;;;5003162;28;20441;-51
2023/07/07 06:21:17;;;;;;;2.07;1.30;;;23.80;47.60;;;;;;5003957;28;20483;-48
2023/07/07 06:23:45;;;;;;;1.80;1.50;;;23.80;47.70;;;;;;4983864;28;20452;-51
2023/07/07 06:26:14;;;;;;;1.60;1.50;;;23.80;47.70;;;;;;5007338;28;20565;-48
2023/07/07 06:28:42;;;;;;;1.70;1.50;;;23.70;47.50;;;;;;4985904;28;20984;-49
2023/07/07 06:31:11;;;;;;;2.57;1.40;;;23.80;47.70;;;;;;4983978;28;21091;-49
2023/07/07 06:33:42;;;;;;;2.43;1.60;;;23.70;47.50;;;;;;5007237;28;20435;-50
2023/07/07 06:36:10;;;;;;;2.37;1.77;;;23.80;47.60;;;;;;5008939;28;20553;-48
2023/07/07 06:38:39;;;;;;;2.00;1.50;;;23.70;47.60;;;;;;4987587;28;21014;-49
2023/07/07 06:41:11;;;;;;;2.40;1.60;;;23.70;47.30;;;;;;5015781;28;20562;-50
2023/07/07 06:43:39;;;;;;;2.10;1.67;;;23.70;47.20;;;;;;5005598;28;20427;-50
2023/07/07 06:46:12;;;;;;;1.70;1.60;;;23.70;47.20;;;;;;5014537;28;20481;-50
2023/07/07 06:48:42;;;;;;;1.47;1.20;;;23.70;47.50;;;;;;5012095;28;20438;-49
2023/07/07 06:51:11;;;;;;;2.27;2.07;;;23.70;47.50;;;;;;4998483;28;20838;-47
2023/07/07 06:53:40;;;;;;;2.27;1.87;;;23.70;47.60;;;;;;4998150;28;20508;-50
2023/07/07 06:56:10;;;;;;;2.50;2.30;;;23.70;47.50;;;;;;5013230;28;20480;-49
2023/07/07 06:58:39;;;;;;;2.10;1.80;;;23.70;47.50;;;;;;5006985;28;20815;-49
2023/07/07 07:01:11;;;;;;;1.63;1.47;;;23.70;47.50;;;;;;4991143;28;20559;-48
2023/07/07 07:03:43;;;;;;;2.10;1.60;;;23.70;47.60;;;;;;5004642;28;21040;-49
2023/07/07 07:06:13;;;;;;;2.00;1.80;;;23.70;47.30;;;;;;4990201;28;20484;-50
2023/07/07 07:08:42;;;;;;;2.00;1.70;;;23.70;47.40;;;;;;5006088;28;20450;-50
2023/07/07 07:11:11;;;;;;;2.30;1.70;;;23.70;47.30;;;;;;4987677;28;20836;-50
2023/07/07 07:13:39;;;;;;;1.73;1.63;;;23.70;47.30;;;;;;5008866;28;20944;-49
2023/07/07 07:16:07;;;;;;;1.70;1.60;;;23.70;47.30;;;;;;4987758;28;20493;-49
2023/07/07 07:18:36;;;;;;;1.90;1.30;;;23.70;47.30;;;;;;5017733;28;20500;-50
2023/07/07 07:21:06;;;;;;;2.57;1.70;;;23.70;47.40;;;;;;5000167;28;20499;-51
2023/07/07 07:23:34;;;;;;;3.00;1.63;;;23.70;47.30;;;;;;4999023;28;20500;-51
2023/07/07 07:26:04;;;;;;;2.10;1.60;;;23.70;47.40;;;;;;5017551;28;20924;-49
2023/07/07 07:28:32;;;;;;;2.83;1.60;;;23.70;47.30;;;;;;5020241;28;20454;-50
2023/07/07 07:31:01;;;;;;;1.63;1.30;;;23.70;47.20;;;;;;5016019;28;20878;-51
2023/07/07 07:33:31;;;;;;;1.93;1.73;;;23.70;47.30;;;;;;5013117;28;20852;-51
2023/07/07 07:35:59;;;;;;;1.43;1.30;;;23.70;47.40;;;;;;5004049;28;20484;-52
2023/07/07 07:38:29;;;;;;;2.00;1.33;;;23.70;47.50;;;;;;4980414;28;20452;-52
2023/07/07 07:40:58;;;;;;;2.10;1.50;;;23.70;47.50;;;;;;4982049;28;20483;-50
2023/07/07 07:43:27;;;;;;;1.60;1.43;;;23.70;47.50;;;;;;4999598;28;20450;-51
2023/07/07 07:45:56;;;;;;;1.70;1.13;;;23.80;47.60;;;;;;4987949;28;20485;-50
2023/07/07 07:48:24;;;;;;;1.43;1.23;;;23.70;47.50;;;;;;5003125;28;20454;-51
2023/07/07 07:50:53;;;;;;;1.60;1.47;;;23.70;47.60;;;;;;4989625;28;20476;-53
2023/07/07 07:53:22;;;;;;;2.43;1.57;;;23.70;47.50;;;;;;4982051;28;20447;-51
2023/07/07 07:55:55;;;;;;;1.43;1.23;;;23.70;47.50;;;;;;4989891;28;20503;-49
2023/07/07 07:58:23;;;;;;;1.83;1.40;;;23.80;47.70;;;;;;4995323;28;20447;-49
2023/07/07 08:00:52;;;;;;;1.50;1.30;;;23.70;47.50;;;;;;4989149;28;20481;-50
2023/07/07 08:03:20;;;;;;;2.10;1.87;;;23.80;47.60;;;;;;4997772;28;21016;-50
2023/07/07 08:05:50;;;;;;;1.53;1.43;;;23.70;47.60;;;;;;4988337;28;20472;-50
2023/07/07 08:08:18;;;;;;;1.73;1.40;;;23.80;47.70;;;;;;4986195;28;20453;-51
2023/07/07 08:10:47;;;;;;;2.33;1.80;;;23.70;47.70;;;;;;5003473;28;20488;-50
2023/07/07 08:13:30;;;;;;;3.60;1.47;;;23.70;47.70;;;;;;4989205;28;20447;-51
2023/07/07 08:16:10;;;;;;;1.93;1.17;;;23.70;47.70;;;;;;5005825;28;20998;-52
2023/07/07 08:18:38;;;;;;;1.37;1.27;;;23.70;47.60;;;;;;5003314;28;20482;-51
2023/07/07 08:21:07;;;;;;;4.70;1.80;;;23.80;47.80;;;;;;4988125;28;20518;-50
2023/07/07 08:23:36;;;;;;;1.40;1.20;;;23.80;47.80;;;;;;5000516;28;20457;-51
2023/07/07 08:26:04;;;;;;;1.47;1.30;;;23.80;47.80;;;;;;5003275;28;20603;-51
2023/07/07 08:28:37;;;;;;;1.53;1.40;;;23.70;47.70;;;;;;5008462;28;20448;-51
2023/07/07 08:31:16;;;;;;;1.77;1.67;;;23.70;47.80;;;;;;4987339;28;20487;-51
2023/07/07 08:33:46;;;;;;;1.57;1.43;;;23.70;47.80;;;;;;5000136;28;20532;-50
2023/07/07 08:36:25;;;;;;;1.63;1.30;;;23.70;47.70;;;;;;5011850;28;20478;-50
2023/07/07 08:38:54;;;;;;;1.67;1.30;;;23.70;47.80;;;;;;4986118;28;20463;-51
2023/07/07 08:41:22;;;;;;;1.53;1.20;;;23.80;47.80;;;;;;4994089;28;20488;-50
2023/07/07 08:43:53;;;;;;;1.80;1.50;;;23.80;47.70;;;;;;4992151;28;20447;-50
2023/07/07 08:46:27;;;;;;;1.60;1.20;;;23.70;47.60;;;;;;5002429;28;20481;-50
2023/07/07 08:49:05;;;;;;;2.10;1.30;;;23.70;47.60;;;;;;5002055;28;20494;-51
2023/07/07 08:51:40;;;;;;;2.33;1.40;;;23.80;47.60;;;;;;4987895;28;20834;-49
2023/07/07 08:54:16;;;;;;;1.40;1.30;;;23.80;47.70;;;;;;5003498;28;20968;-50
2023/07/07 08:56:52;;;;;;;1.53;1.23;;;23.70;47.60;;;;;;5000570;28;20472;-50
2023/07/07 08:59:35;;;;;;;1.80;1.63;;;23.80;47.70;;;;;;5006484;28;20522;-49
2023/07/07 09:02:15;;;;;;;1.50;1.30;;;23.70;47.60;;;;;;5000311;28;20859;-52
2023/07/07 09:04:55;;;;;;;1.50;1.20;;;23.70;47.60;;;;;;5006481;28;20431;-50
2023/07/07 09:07:57;;;;;;;2.17;1.40;;;23.80;47.80;;;;;;5013393;28;20961;-49
2023/07/07 09:10:37;;;;;;;1.60;1.50;;;23.70;47.60;;;;;;5009530;28;20483;-50
2023/07/07 09:13:13;;;;;;;1.67;1.30;;;23.80;47.80;;;;;;5007253;28;20456;-50
2023/07/07 09:15:49;;;;;;;1.97;1.40;;;23.80;47.70;;;;;;4994411;28;20476;-51
2023/07/07 09:18:22;;;;;;;2.30;1.47;;;23.80;47.60;;;;;;5007758;28;20877;-52
2023/07/07 09:20:54;;;;;;;1.60;1.40;;;23.70;47.40;;;;;;4997803;28;20484;-49
2023/07/07 09:23:26;;;;;;;1.83;1.37;;;23.70;47.60;;;;;;4993031;28;20464;-49
2023/07/07 09:26:00;;;;;;;1.87;1.33;;;23.70;47.50;;;;;;5006600;28;20897;-51
2023/07/07 09:28:32;;;;;;;1.70;1.37;;;23.70;47.50;;;;;;5000417;28;20453;-51
2023/07/07 09:31:19;;;;;;;1.90;1.57;;;23.70;48.00;;;;;;4981561;28;21013;-51
2023/07/07 09:33:47;;;;;;;1.43;1.30;;;23.70;47.40;;;;;;5001680;28;20456;-51
2023/07/07 09:36:19;;;;;;;1.53;1.37;;;23.70;47.30;;;;;;5010700;28;20474;-51
2023/07/07 09:38:57;;;;;;;1.70;1.60;;;23.70;47.40;;;;;;5003645;28;20462;-50
2023/07/07 09:41:35;;;;;;;1.53;1.20;;;23.80;47.10;;;;;;4999475;28;20558;-49
2023/07/07 09:44:18;;;;;;;1.43;1.33;;;23.70;48.30;;;;;;4988683;28;20821;-50
2023/07/07 09:46:57;;;;;;;2.47;1.60;;;23.80;47.10;;;;;;4987654;28;20491;-51
2023/07/07 09:49:38;;;;;;;1.60;1.30;;;23.80;47.10;;;;;;4979990;28;20482;-50
2023/07/07 09:52:27;;;;;;;1.77;1.37;;;23.80;47.10;;;;;;5005232;28;20462;-51
2023/07/07 09:54:58;;;;;;;1.60;1.50;;;23.80;47.10;;;;;;4991524;28;20965;-51
2023/07/07 09:57:32;;;;;;;1.47;1.30;;;23.80;47.50;;;;;;5000469;28;20472;-50
2023/07/07 10:00:03;;;;;;;2.20;1.50;;;23.80;47.10;;;;;;5004461;28;20503;-51
2023/07/07 10:02:33;;;;;;;1.97;1.70;;;23.80;47.10;;;;;;5006559;28;20457;-50
2023/07/07 10:05:05;;;;;;;2.60;1.60;;;23.80;47.00;;;;;;4994442;28;20457;-50
2023/07/07 10:07:37;;;;;;;1.53;1.40;;;23.80;47.00;;;;;;5010167;28;20451;-50
2023/07/07 10:10:13;;;;;;;1.60;1.30;;;23.80;46.90;;;;;;5013989;28;20459;-51
2023/07/07 10:12:43;;;;;;;2.20;1.50;;;23.80;47.00;;;;;;5003414;28;20461;-50
2023/07/07 10:15:49;;;;;;;1.70;1.40;;;23.80;46.80;;;;;;4998470;28;20999;-52
2023/07/07 10:18:24;;;;;;;1.50;1.40;;;23.80;47.00;;;;;;4999061;28;20458;-50
2023/07/07 10:20:56;;;;;;;1.60;1.50;;;23.80;47.00;;;;;;4997023;28;20570;-51
2023/07/07 10:23:29;;;;;;;2.23;1.60;;;23.80;47.00;;;;;;5016727;28;20453;-49
2023/07/07 10:25:58;;;;;;;2.63;1.50;;;23.80;47.00;;;;;;4988784;28;20555;-52
2023/07/07 10:28:27;;;;;;;1.67;1.33;;;23.80;47.00;;;;;;4993015;28;20538;-50
2023/07/07 10:30:56;;;;;;;1.53;1.43;;;23.80;47.00;;;;;;4989422;28;20513;-50
2023/07/07 10:33:26;;;;;;;1.70;1.60;;;23.80;46.90;;;;;;4996086;28;20448;-50
2023/07/07 10:35:55;;;;;;;2.00;1.33;;;23.80;46.80;;;;;;4990321;28;20469;-51
2023/07/07 10:38:24;;;;;;;1.60;1.50;;;23.80;46.90;;;;;;5014800;28;20461;-50
2023/07/07 10:40:58;;;;;;;1.50;1.40;;;23.80;46.90;;;;;;5009312;28;20474;-50
2023/07/07 10:43:27;;;;;;;1.67;1.50;;;23.80;46.80;;;;;;5012079;28;20455;-50
2023/07/07 10:45:56;;;;;;;1.90;1.50;;;23.80;46.60;;;;;;4997141;28;20461;-49
2023/07/07 10:48:26;;;;;;;1.67;1.57;;;23.80;46.70;;;;;;4989780;28;20444;-52
2023/07/07 10:51:04;;;;;;;2.40;1.77;;;23.80;46.70;;;;;;4996714;28;20480;-52
2023/07/07 10:53:49;;;;;;;1.40;1.27;;;23.80;46.70;;;;;;4990223;28;20457;-51
2023/07/07 10:56:28;;;;;;;1.70;1.57;;;23.80;46.70;;;;;;4988836;28;20514;-50
2023/07/07 10:59:29;;;;;;;1.60;1.20;;;23.90;46.80;;;;;;5009232;28;20423;-53
2023/07/07 11:02:13;;;;;;;1.43;1.30;;;23.90;46.70;;;;;;4991349;28;20478;-49
2023/07/07 11:05:15;;;;;;;2.43;1.57;;;23.90;46.80;;;;;;5001312;28;20476;-50
2023/07/07 11:07:54;;;;;;;1.73;1.63;;;23.90;46.70;;;;;;4995689;28;20849;-51
2023/07/07 11:10:40;;;;;;;1.90;1.70;;;23.90;46.80;;;;;;4993989;28;20489;-52
2023/07/07 11:13:19;;;;;;;2.63;1.60;;;23.90;46.80;;;;;;4992950;28;20550;-50
2023/07/07 11:15:55;;;;;;;1.70;1.60;;;23.90;46.80;;;;;;4995598;28;20475;-51
2023/07/07 11:18:44;;;;;;;2.23;1.77;;;23.90;46.40;;;;;;5019190;28;20475;-52
2023/07/07 11:21:24;;;;;;;1.87;1.57;;;23.90;46.70;;;;;;4990738;28;20487;-51
2023/07/07 11:24:11;;;;;;;2.50;1.47;;;23.90;46.50;;;;;;4995016;28;20986;-51
2023/07/07 11:27:33;;;;;;;1.53;1.43;;;23.90;46.60;;;;;;5005704;28;20969;-51
2023/07/07 11:30:14;;;;;;;2.03;1.50;;;23.90;46.60;;;;;;4992149;28;20876;-52
2023/07/07 11:32:50;;;;;;;1.97;1.60;;;23.90;46.70;;;;;;5004792;28;20492;-50
2023/07/07 11:35:31;;;;;;;2.20;1.67;;;23.90;46.70;;;;;;5008564;28;20843;-50
2023/07/07 11:38:17;;;;;;;1.70;1.47;;;23.90;46.60;;;;;;4997481;28;20570;-51
2023/07/07 11:40:58;;;;;;;1.43;1.33;;;23.90;46.60;;;;;;5009618;28;20482;-51
2023/07/07 11:43:57;;;;;;;1.73;1.50;;;24.00;46.50;;;;;;5002178;28;20480;-50
2023/07/07 11:46:57;;;;;;;1.70;1.47;;;23.90;46.40;;;;;;4991715;28;21101;-51
2023/07/07 11:49:50;;;;;;;1.57;1.40;;;24.00;46.60;;;;;;4993008;28;21016;-50
2023/07/07 11:52:35;;;;;;;1.73;1.53;;;24.00;46.70;;;;;;5011283;28;20454;-50
2023/07/07 11:55:18;;;;;;;2.20;1.53;;;24.00;46.60;;;;;;5002995;28;20876;-51
2023/07/07 11:58:00;;;;;;;1.33;1.23;;;24.00;46.50;;;;;;5010759;28;20469;-50
2023/07/07 12:00:42;;;;;;;4.60;1.57;;;24.00;46.50;;;;;;4988463;28;21024;-50
2023/07/07 12:03:37;;;;;;;1.47;1.30;;;24.00;46.70;;;;;;5009621;28;20797;-49
2023/07/07 12:06:15;;;;;;;1.70;1.57;;;24.00;46.70;;;;;;5005256;28;20479;-50
2023/07/07 12:08:59;;;;;;;1.83;1.50;;;24.00;46.50;;;;;;4993485;28;20927;-52
2023/07/07 12:11:37;;;;;;;1.57;1.43;;;24.10;46.80;;;;;;4994788;28;20564;-49
2023/07/07 12:14:20;;;;;;;2.17;1.57;;;24.00;46.50;;;;;;4998570;28;20447;-51
2023/07/07 12:16:51;;;;;;;1.77;1.67;;;24.10;46.70;;;;;;5000440;28;21044;-50
2023/07/07 12:19:30;;;;;;;1.87;1.70;;;24.10;46.60;;;;;;5006753;28;20480;-52
2023/07/07 12:22:03;;;;;;;1.80;1.60;;;24.10;46.20;;;;;;5004081;28;20463;-50
2023/07/07 12:24:38;;;;;;;1.53;1.43;;;24.10;46.30;;;;;;5010412;28;20473;-49
2023/07/07 12:27:18;;;;;;;1.97;1.63;;;24.10;46.40;;;;;;5004583;28;20443;-50
2023/07/07 12:29:48;;;;;;;2.40;1.90;;;24.10;46.40;;;;;;4999466;28;20463;-50
2023/07/07 12:32:17;;;;;;;1.80;1.70;;;24.10;46.40;;;;;;5010105;28;20446;-50
2023/07/07 12:34:50;;;;;;;3.67;1.53;;;24.10;46.50;;;;;;5008548;28;20443;-49
2023/07/07 12:37:22;;;;;;;1.80;1.33;;;24.10;46.40;;;;;;4995076;28;20465;-50
2023/07/07 12:39:57;;;;;;;2.27;1.50;;;24.10;46.50;;;;;;5010053;28;20480;-49
2023/07/07 12:42:29;;;;;;;1.63;1.30;;;24.10;46.40;;;;;;5009487;28;20795;-50
2023/07/07 12:45:07;;;;;;;2.97;2.00;;;24.20;46.60;;;;;;4998055;28;20472;-49
2023/07/07 12:47:40;;;;;;;1.80;1.40;;;24.20;46.50;;;;;;4967346;28;20453;-49
2023/07/07 12:50:26;;;;;;;1.77;1.60;;;24.20;46.40;;;;;;4971196;28;20574;-51
2023/07/07 12:52:59;;;;;;;1.90;1.80;;;24.20;46.50;;;;;;4970021;28;20453;-51
2023/07/07 12:55:30;;;;;;;1.63;1.37;;;24.20;46.40;;;;;;4972989;28;20468;-50
2023/07/07 12:58:43;;;;;;;2.53;1.73;;;24.20;46.50;;;;;;4977047;28;20473;-50
2023/07/07 13:01:27;;;;;;;2.40;1.57;;;24.20;46.40;;;;;;4967706;28;20479;-49
2023/07/07 13:04:13;;;;;;;2.93;1.93;;;24.30;46.50;;;;;;4977050;28;20460;-51
2023/07/07 13:06:47;;;;;;;2.60;1.97;;;24.30;46.40;;;;;;5013174;28;20497;-49
2023/07/07 13:09:24;;;;;;;2.70;1.60;;;24.20;46.40;;;;;;4989311;28;20444;-52
2023/07/07 13:11:58;;;;;;;1.67;1.40;;;24.30;46.50;;;;;;5018043;28;20588;-49
2023/07/07 13:14:40;;;;;;;1.73;1.63;;;24.30;46.60;;;;;;4999490;28;20487;-50
2023/07/07 13:17:12;;;;;;;2.17;1.77;;;24.30;46.60;;;;;;4993315;28;20927;-50
2023/07/07 13:19:48;;;;;;;2.27;2.00;;;24.30;46.50;;;;;;4993856;28;20465;-50